Terminal Aerodrome Forecast
Issued by NWS Twin Cities, MN

Home | Current Version | Previous Version | Text Only | Print | Product List | Glossary On
Versions: 1 2 3 4 5 6 7 8 9 10 11 12 13 14 15 16
000
FTUS43 KMPX 051739
TAFSTC
TAF
KSTC 051739Z 0518/0618 21009KT P6SM SKC
     FM060000 18009KT P6SM SCT150
     FM060600 20010KT P6SM BKN100
     FM061400 27010KT P6SM FEW060 SCT120=

USA.gov is the U.S. government's official web portal to all federal, state and local government web resources and services.